sensor_id;sensor_type;location;lat;lon;timestamp;temperature;humidity
39095;DHT22;24840;47.508;19.376;2023-02-28T00:00:13;-0.50;98.80
39095;DHT22;24840;47.508;19.376;2023-02-28T00:02:41;-0.50;99.00
39095;DHT22;24840;47.508;19.376;2023-02-28T00:05:08;-0.40;99.00
39095;DHT22;24840;47.508;19.376;2023-02-28T00:07:34;-0.40;98.80
39095;DHT22;24840;47.508;19.376;2023-02-28T00:10:01;-0.40;99.00
39095;DHT22;24840;47.508;19.376;2023-02-28T00:12:27;-0.50;98.90
39095;DHT22;24840;47.508;19.376;2023-02-28T00:14:53;-0.50;99.40
39095;DHT22;24840;47.508;19.376;2023-02-28T00:17:19;-0.40;99.50
39095;DHT22;24840;47.508;19.376;2023-02-28T00:19:49;-0.40;99.50
39095;DHT22;24840;47.508;19.376;2023-02-28T00:22:17;-0.40;99.30
39095;DHT22;24840;47.508;19.376;2023-02-28T00:24:44;-0.40;99.30
39095;DHT22;24840;47.508;19.376;2023-02-28T00:27:10;-0.50;99.00
39095;DHT22;24840;47.508;19.376;2023-02-28T00:29:36;-0.60;99.30
39095;DHT22;24840;47.508;19.376;2023-02-28T00:32:02;-0.50;99.70
39095;DHT22;24840;47.508;19.376;2023-02-28T00:34:28;-0.40;99.50
39095;DHT22;24840;47.508;19.376;2023-02-28T00:36:54;-0.60;98.90
39095;DHT22;24840;47.508;19.376;2023-02-28T00:39:20;-0.50;99.30
39095;DHT22;24840;47.508;19.376;2023-02-28T00:41:46;-0.50;99.50
39095;DHT22;24840;47.508;19.376;2023-02-28T00:44:12;-0.40;99.50
39095;DHT22;24840;47.508;19.376;2023-02-28T00:46:37;-0.40;99.70
39095;DHT22;24840;47.508;19.376;2023-02-28T00:49:03;-0.50;99.30
39095;DHT22;24840;47.508;19.376;2023-02-28T00:51:29;-0.50;98.90
39095;DHT22;24840;47.508;19.376;2023-02-28T00:53:55;-0.50;98.70
39095;DHT22;24840;47.508;19.376;2023-02-28T00:56:20;-0.50;98.90
39095;DHT22;24840;47.508;19.376;2023-02-28T00:58:59;-0.50;98.70
39095;DHT22;24840;47.508;19.376;2023-02-28T01:01:25;-0.40;99.30
39095;DHT22;24840;47.508;19.376;2023-02-28T01:03:51;-0.40;99.30
39095;DHT22;24840;47.508;19.376;2023-02-28T01:06:16;-0.40;98.80
39095;DHT22;24840;47.508;19.376;2023-02-28T01:08:42;-0.40;99.00
39095;DHT22;24840;47.508;19.376;2023-02-28T01:11:10;-0.30;99.50
39095;DHT22;24840;47.508;19.376;2023-02-28T01:13:36;-0.30;99.60
39095;DHT22;24840;47.508;19.376;2023-02-28T01:16:01;-0.30;99.50
39095;DHT22;24840;47.508;19.376;2023-02-28T01:18:27;-0.50;99.40
39095;DHT22;24840;47.508;19.376;2023-02-28T01:20:54;-0.50;99.90
39095;DHT22;24840;47.508;19.376;2023-02-28T01:23:21;-0.40;99.90
39095;DHT22;24840;47.508;19.376;2023-02-28T01:25:49;-0.40;99.90
39095;DHT22;24840;47.508;19.376;2023-02-28T01:28:15;-0.40;99.90
39095;DHT22;24840;47.508;19.376;2023-02-28T01:30:41;-0.30;99.90
39095;DHT22;24840;47.508;19.376;2023-02-28T01:33:07;-0.30;99.90
39095;DHT22;24840;47.508;19.376;2023-02-28T01:35:34;-0.30;99.90
39095;DHT22;24840;47.508;19.376;2023-02-28T01:38:00;-0.30;99.90
39095;DHT22;24840;47.508;19.376;2023-02-28T01:40:25;-0.30;99.90
39095;DHT22;24840;47.508;19.376;2023-02-28T01:42:51;-0.20;99.90
39095;DHT22;24840;47.508;19.376;2023-02-28T01:45:29;-0.20;99.90
39095;DHT22;24840;47.508;19.376;2023-02-28T01:48:00;-0.20;99.90
39095;DHT22;24840;47.508;19.376;2023-02-28T01:50:29;-0.20;99.90
39095;DHT22;24840;47.508;19.376;2023-02-28T01:53:00;-0.20;99.90
39095;DHT22;24840;47.508;19.376;2023-02-28T01:55:28;-0.20;99.90
39095;DHT22;24840;47.508;19.376;2023-02-28T01:58:00;-0.20;99.90
39095;DHT22;24840;47.508;19.376;2023-02-28T02:00:28;-0.20;99.90
39095;DHT22;24840;47.508;19.376;2023-02-28T02:03:01;-0.20;99.90
39095;DHT22;24840;47.508;19.376;2023-02-28T02:05:30;-0.30;99.90
39095;DHT22;24840;47.508;19.376;2023-02-28T02:08:01;-0.20;99.90
39095;DHT22;24840;47.508;19.376;2023-02-28T02:19:15;-0.20;99.90
39095;DHT22;24840;47.508;19.376;2023-02-28T02:33:02;-0.20;99.90
39095;DHT22;24840;47.508;19.376;2023-02-28T02:39:16;-0.30;99.90
39095;DHT22;24840;47.508;19.376;2023-02-28T02:41:29;-0.20;99.90
39095;DHT22;24840;47.508;19.376;2023-02-28T02:46:34;-0.20;99.90
39095;DHT22;24840;47.508;19.376;2023-02-28T02:49:06;-0.20;99.90
39095;DHT22;24840;47.508;19.376;2023-02-28T02:51:35;-0.20;99.90
39095;DHT22;24840;47.508;19.376;2023-02-28T02:54:09;-0.20;99.90
39095;DHT22;24840;47.508;19.376;2023-02-28T02:56:39;-0.20;99.90
39095;DHT22;24840;47.508;19.376;2023-02-28T02:59:10;-0.20;99.90
39095;DHT22;24840;47.508;19.376;2023-02-28T03:01:38;-0.20;99.90
39095;DHT22;24840;47.508;19.376;2023-02-28T03:04:17;-0.20;99.90
39095;DHT22;24840;47.508;19.376;2023-02-28T03:06:44;-0.20;99.90
39095;DHT22;24840;47.508;19.376;2023-02-28T03:09:09;-0.20;99.90
39095;DHT22;24840;47.508;19.376;2023-02-28T03:11:37;-0.10;99.90
39095;DHT22;24840;47.508;19.376;2023-02-28T03:17:05;-0.20;99.90
39095;DHT22;24840;47.508;19.376;2023-02-28T03:22:54;-0.10;99.90
39095;DHT22;24840;47.508;19.376;2023-02-28T03:25:37;-0.20;99.90
39095;DHT22;24840;47.508;19.376;2023-02-28T03:28:35;-0.10;99.90
39095;DHT22;24840;47.508;19.376;2023-02-28T03:31:26;0.00;99.90
39095;DHT22;24840;47.508;19.376;2023-02-28T03:34:13;0.00;99.90
39095;DHT22;24840;47.508;19.376;2023-02-28T03:36:42;0.00;99.90
39095;DHT22;24840;47.508;19.376;2023-02-28T03:39:21;0.00;99.90
39095;DHT22;24840;47.508;19.376;2023-02-28T03:41:57;0.00;99.90
39095;DHT22;24840;47.508;19.376;2023-02-28T03:44:35;0.00;99.90
39095;DHT22;24840;47.508;19.376;2023-02-28T03:47:11;0.00;99.90
39095;DHT22;24840;47.508;19.376;2023-02-28T03:49:49;-0.10;99.90
39095;DHT22;24840;47.508;19.376;2023-02-28T03:52:18;-0.10;99.90
39095;DHT22;24840;47.508;19.376;2023-02-28T03:54:48;0.00;99.90
39095;DHT22;24840;47.508;19.376;2023-02-28T03:57:51;0.00;99.90
39095;DHT22;24840;47.508;19.376;2023-02-28T04:00:37;0.00;99.90
39095;DHT22;24840;47.508;19.376;2023-02-28T04:03:05;0.00;99.90
39095;DHT22;24840;47.508;19.376;2023-02-28T04:05:31;0.00;99.90
39095;DHT22;24840;47.508;19.376;2023-02-28T04:08:07;0.10;99.90
39095;DHT22;24840;47.508;19.376;2023-02-28T04:10:33;0.10;99.90
39095;DHT22;24840;47.508;19.376;2023-02-28T04:12:59;0.10;99.90
39095;DHT22;24840;47.508;19.376;2023-02-28T04:15:24;0.00;99.90
39095;DHT22;24840;47.508;19.376;2023-02-28T04:17:53;0.00;99.90
39095;DHT22;24840;47.508;19.376;2023-02-28T04:20:18;0.10;99.90
39095;DHT22;24840;47.508;19.376;2023-02-28T04:22:44;0.10;99.90
39095;DHT22;24840;47.508;19.376;2023-02-28T04:25:10;0.00;99.90
39095;DHT22;24840;47.508;19.376;2023-02-28T04:27:36;0.00;99.90
39095;DHT22;24840;47.508;19.376;2023-02-28T04:30:02;0.10;99.90
39095;DHT22;24840;47.508;19.376;2023-02-28T04:32:27;0.10;99.90
39095;DHT22;24840;47.508;19.376;2023-02-28T04:34:53;0.10;99.90
39095;DHT22;24840;47.508;19.376;2023-02-28T04:37:19;0.10;99.90
39095;DHT22;24840;47.508;19.376;2023-02-28T04:39:45;0.10;99.90
39095;DHT22;24840;47.508;19.376;2023-02-28T04:42:11;0.20;99.90
39095;DHT22;24840;47.508;19.376;2023-02-28T04:44:37;0.20;99.90
39095;DHT22;24840;47.508;19.376;2023-02-28T04:47:03;0.20;99.90
39095;DHT22;24840;47.508;19.376;2023-02-28T04:49:29;0.20;99.90
39095;DHT22;24840;47.508;19.376;2023-02-28T04:51:55;0.20;99.90
39095;DHT22;24840;47.508;19.376;2023-02-28T04:54:21;0.20;99.90
39095;DHT22;24840;47.508;19.376;2023-02-28T04:56:47;0.20;99.90
39095;DHT22;24840;47.508;19.376;2023-02-28T04:59:15;0.20;99.90
39095;DHT22;24840;47.508;19.376;2023-02-28T05:01:40;0.20;99.90
39095;DHT22;24840;47.508;19.376;2023-02-28T05:04:10;0.20;99.90
39095;DHT22;24840;47.508;19.376;2023-02-28T05:06:36;0.20;99.90
39095;DHT22;24840;47.508;19.376;2023-02-28T05:09:02;0.30;99.90
39095;DHT22;24840;47.508;19.376;2023-02-28T05:11:32;0.20;99.90
39095;DHT22;24840;47.508;19.376;2023-02-28T05:14:03;0.20;99.90
39095;DHT22;24840;47.508;19.376;2023-02-28T05:16:29;0.10;99.90
39095;DHT22;24840;47.508;19.376;2023-02-28T05:18:55;0.20;99.90
39095;DHT22;24840;47.508;19.376;2023-02-28T05:21:36;0.30;99.90
39095;DHT22;24840;47.508;19.376;2023-02-28T05:24:07;0.30;99.90
39095;DHT22;24840;47.508;19.376;2023-02-28T05:26:38;0.20;99.90
39095;DHT22;24840;47.508;19.376;2023-02-28T05:29:04;0.30;99.90
39095;DHT22;24840;47.508;19.376;2023-02-28T05:31:30;0.30;99.90
39095;DHT22;24840;47.508;19.376;2023-02-28T05:33:56;0.40;99.90
39095;DHT22;24840;47.508;19.376;2023-02-28T05:36:22;0.40;99.90
39095;DHT22;24840;47.508;19.376;2023-02-28T05:38:48;0.40;99.90
39095;DHT22;24840;47.508;19.376;2023-02-28T05:41:14;0.50;99.90
39095;DHT22;24840;47.508;19.376;2023-02-28T05:43:40;0.50;99.90
39095;DHT22;24840;47.508;19.376;2023-02-28T05:46:09;0.50;99.90
39095;DHT22;24840;47.508;19.376;2023-02-28T05:48:36;0.50;99.90
39095;DHT22;24840;47.508;19.376;2023-02-28T05:51:03;0.50;99.90
39095;DHT22;24840;47.508;19.376;2023-02-28T05:53:29;0.50;99.90
39095;DHT22;24840;47.508;19.376;2023-02-28T05:55:55;0.40;99.90
39095;DHT22;24840;47.508;19.376;2023-02-28T05:58:22;0.50;99.90
39095;DHT22;24840;47.508;19.376;2023-02-28T06:00:48;0.50;99.90
39095;DHT22;24840;47.508;19.376;2023-02-28T06:03:13;0.60;99.90
39095;DHT22;24840;47.508;19.376;2023-02-28T06:05:39;0.60;99.90
39095;DHT22;24840;47.508;19.376;2023-02-28T06:08:05;0.60;99.90
39095;DHT22;24840;47.508;19.376;2023-02-28T06:10:34;0.60;99.90
39095;DHT22;24840;47.508;19.376;2023-02-28T06:13:01;0.60;99.90
39095;DHT22;24840;47.508;19.376;2023-02-28T06:15:31;0.70;99.90
39095;DHT22;24840;47.508;19.376;2023-02-28T06:17:57;0.70;99.90
39095;DHT22;24840;47.508;19.376;2023-02-28T06:20:24;0.70;99.90
39095;DHT22;24840;47.508;19.376;2023-02-28T06:22:51;0.70;99.90
39095;DHT22;24840;47.508;19.376;2023-02-28T06:25:17;0.70;99.90
39095;DHT22;24840;47.508;19.376;2023-02-28T06:27:44;0.70;99.80
39095;DHT22;24840;47.508;19.376;2023-02-28T06:30:10;0.80;99.70
39095;DHT22;24840;47.508;19.376;2023-02-28T06:32:36;0.80;99.90
39095;DHT22;24840;47.508;19.376;2023-02-28T06:35:03;0.90;99.90
39095;DHT22;24840;47.508;19.376;2023-02-28T06:37:30;0.90;99.80
39095;DHT22;24840;47.508;19.376;2023-02-28T06:39:56;1.00;99.90
39095;DHT22;24840;47.508;19.376;2023-02-28T06:42:24;1.10;99.50
39095;DHT22;24840;47.508;19.376;2023-02-28T06:44:55;1.10;99.30
39095;DHT22;24840;47.508;19.376;2023-02-28T06:47:21;1.00;98.30
39095;DHT22;24840;47.508;19.376;2023-02-28T06:49:47;1.10;98.60
39095;DHT22;24840;47.508;19.376;2023-02-28T06:52:14;1.20;98.90
39095;DHT22;24840;47.508;19.376;2023-02-28T06:54:40;1.20;98.40
39095;DHT22;24840;47.508;19.376;2023-02-28T06:57:05;1.30;98.60
39095;DHT22;24840;47.508;19.376;2023-02-28T06:59:31;1.30;98.40
39095;DHT22;24840;47.508;19.376;2023-02-28T07:01:57;1.40;98.70
39095;DHT22;24840;47.508;19.376;2023-02-28T07:04:23;1.40;97.70
39095;DHT22;24840;47.508;19.376;2023-02-28T07:06:49;1.50;98.40
39095;DHT22;24840;47.508;19.376;2023-02-28T07:09:15;1.50;97.90
39095;DHT22;24840;47.508;19.376;2023-02-28T07:11:40;1.60;97.30
39095;DHT22;24840;47.508;19.376;2023-02-28T07:14:08;1.60;96.60
39095;DHT22;24840;47.508;19.376;2023-02-28T07:16:35;1.50;96.80
39095;DHT22;24840;47.508;19.376;2023-02-28T07:19:00;1.50;96.90
39095;DHT22;24840;47.508;19.376;2023-02-28T07:21:26;1.60;96.60
39095;DHT22;24840;47.508;19.376;2023-02-28T07:23:52;1.70;97.20
39095;DHT22;24840;47.508;19.376;2023-02-28T07:26:19;1.70;96.40
39095;DHT22;24840;47.508;19.376;2023-02-28T07:28:46;1.70;96.00
39095;DHT22;24840;47.508;19.376;2023-02-28T07:31:13;1.80;96.10
39095;DHT22;24840;47.508;19.376;2023-02-28T07:33:39;1.90;96.30
39095;DHT22;24840;47.508;19.376;2023-02-28T07:36:11;2.00;95.70
39095;DHT22;24840;47.508;19.376;2023-02-28T07:38:42;2.10;95.30
39095;DHT22;24840;47.508;19.376;2023-02-28T07:41:09;2.10;95.80
39095;DHT22;24840;47.508;19.376;2023-02-28T07:43:35;2.30;96.20
39095;DHT22;24840;47.508;19.376;2023-02-28T07:46:03;2.40;95.70
39095;DHT22;24840;47.508;19.376;2023-02-28T07:48:29;2.50;95.10
39095;DHT22;24840;47.508;19.376;2023-02-28T07:50:56;2.60;94.60
39095;DHT22;24840;47.508;19.376;2023-02-28T07:53:22;2.80;95.00
39095;DHT22;24840;47.508;19.376;2023-02-28T07:55:48;2.70;93.40
39095;DHT22;24840;47.508;19.376;2023-02-28T07:58:14;2.80;93.30
39095;DHT22;24840;47.508;19.376;2023-02-28T08:00:40;3.10;94.70
39095;DHT22;24840;47.508;19.376;2023-02-28T08:03:05;3.30;94.70
39095;DHT22;24840;47.508;19.376;2023-02-28T08:05:31;3.40;93.90
39095;DHT22;24840;47.508;19.376;2023-02-28T08:07:57;3.60;94.40
39095;DHT22;24840;47.508;19.376;2023-02-28T08:10:23;3.70;92.90
39095;DHT22;24840;47.508;19.376;2023-02-28T08:12:49;3.70;91.80
39095;DHT22;24840;47.508;19.376;2023-02-28T08:15:15;3.40;92.90
39095;DHT22;24840;47.508;19.376;2023-02-28T08:17:41;3.60;92.50
39095;DHT22;24840;47.508;19.376;2023-02-28T08:20:07;3.70;91.80
39095;DHT22;24840;47.508;19.376;2023-02-28T08:22:33;3.60;90.60
39095;DHT22;24840;47.508;19.376;2023-02-28T08:24:58;3.60;90.00
39095;DHT22;24840;47.508;19.376;2023-02-28T08:27:24;3.60;91.30
39095;DHT22;24840;47.508;19.376;2023-02-28T08:29:50;3.50;90.00
39095;DHT22;24840;47.508;19.376;2023-02-28T08:32:15;3.70;90.20
39095;DHT22;24840;47.508;19.376;2023-02-28T08:34:41;3.80;91.00
39095;DHT22;24840;47.508;19.376;2023-02-28T08:37:07;3.70;90.50
39095;DHT22;24840;47.508;19.376;2023-02-28T08:39:35;3.90;91.00
39095;DHT22;24840;47.508;19.376;2023-02-28T08:42:02;4.10;91.00
39095;DHT22;24840;47.508;19.376;2023-02-28T08:44:28;4.40;91.40
39095;DHT22;24840;47.508;19.376;2023-02-28T08:46:54;4.50;91.00
39095;DHT22;24840;47.508;19.376;2023-02-28T08:49:20;4.50;91.00
39095;DHT22;24840;47.508;19.376;2023-02-28T08:51:45;4.50;90.10
39095;DHT22;24840;47.508;19.376;2023-02-28T08:54:11;4.80;91.90
39095;DHT22;24840;47.508;19.376;2023-02-28T08:56:45;5.60;90.30
39095;DHT22;24840;47.508;19.376;2023-02-28T08:59:12;5.50;90.60
39095;DHT22;24840;47.508;19.376;2023-02-28T09:01:38;5.50;87.80
39095;DHT22;24840;47.508;19.376;2023-02-28T09:04:04;4.90;89.90
39095;DHT22;24840;47.508;19.376;2023-02-28T09:06:32;5.00;90.90
39095;DHT22;24840;47.508;19.376;2023-02-28T09:08:58;5.10;90.30
39095;DHT22;24840;47.508;19.376;2023-02-28T09:11:25;5.20;90.60
39095;DHT22;24840;47.508;19.376;2023-02-28T09:13:51;5.10;90.20
39095;DHT22;24840;47.508;19.376;2023-02-28T09:16:17;5.00;90.30
39095;DHT22;24840;47.508;19.376;2023-02-28T09:18:43;5.00;90.60
39095;DHT22;24840;47.508;19.376;2023-02-28T09:21:11;5.40;91.50
39095;DHT22;24840;47.508;19.376;2023-02-28T09:23:42;5.50;91.00
39095;DHT22;24840;47.508;19.376;2023-02-28T09:26:14;5.70;90.50
39095;DHT22;24840;47.508;19.376;2023-02-28T09:28:40;5.80;90.40
39095;DHT22;24840;47.508;19.376;2023-02-28T09:31:06;5.30;90.60
39095;DHT22;24840;47.508;19.376;2023-02-28T09:33:32;5.40;90.30
39095;DHT22;24840;47.508;19.376;2023-02-28T09:36:00;5.70;91.20
39095;DHT22;24840;47.508;19.376;2023-02-28T09:38:27;5.70;90.80
39095;DHT22;24840;47.508;19.376;2023-02-28T09:41:00;5.40;90.10
39095;DHT22;24840;47.508;19.376;2023-02-28T09:43:31;5.40;90.40
39095;DHT22;24840;47.508;19.376;2023-02-28T09:46:33;5.20;90.70
39095;DHT22;24840;47.508;19.376;2023-02-28T09:49:19;5.40;90.90
39095;DHT22;24840;47.508;19.376;2023-02-28T09:54:30;6.00;90.50
39095;DHT22;24840;47.508;19.376;2023-02-28T09:57:08;6.30;90.60
39095;DHT22;24840;47.508;19.376;2023-02-28T10:05:28;6.30;86.70
39095;DHT22;24840;47.508;19.376;2023-02-28T10:10:49;6.70;88.60
39095;DHT22;24840;47.508;19.376;2023-02-28T10:16:43;7.40;88.20
39095;DHT22;24840;47.508;19.376;2023-02-28T10:18:54;8.10;87.80
39095;DHT22;24840;47.508;19.376;2023-02-28T10:21:31;8.30;84.50
39095;DHT22;24840;47.508;19.376;2023-02-28T10:24:04;8.70;83.90
39095;DHT22;24840;47.508;19.376;2023-02-28T10:26:36;8.10;81.30
39095;DHT22;24840;47.508;19.376;2023-02-28T10:29:03;8.00;84.20
39095;DHT22;24840;47.508;19.376;2023-02-28T10:31:29;8.70;82.20
39095;DHT22;24840;47.508;19.376;2023-02-28T10:33:55;8.80;82.80
39095;DHT22;24840;47.508;19.376;2023-02-28T10:36:21;9.80;81.10
39095;DHT22;24840;47.508;19.376;2023-02-28T10:38:48;9.30;76.30
39095;DHT22;24840;47.508;19.376;2023-02-28T10:41:28;9.90;76.90
39095;DHT22;24840;47.508;19.376;2023-02-28T10:44:13;10.10;80.00
39095;DHT22;24840;47.508;19.376;2023-02-28T10:46:41;11.10;80.70
39095;DHT22;24840;47.508;19.376;2023-02-28T10:49:26;11.40;77.10
39095;DHT22;24840;47.508;19.376;2023-02-28T10:51:56;11.40;76.10
39095;DHT22;24840;47.508;19.376;2023-02-28T10:54:31;11.60;71.10
39095;DHT22;24840;47.508;19.376;2023-02-28T10:59:32;9.70;74.90
39095;DHT22;24840;47.508;19.376;2023-02-28T11:01:58;9.50;74.10
39095;DHT22;24840;47.508;19.376;2023-02-28T11:07:09;8.60;75.60
39095;DHT22;24840;47.508;19.376;2023-02-28T11:09:40;8.60;77.10
39095;DHT22;24840;47.508;19.376;2023-02-28T11:12:20;8.60;77.00
39095;DHT22;24840;47.508;19.376;2023-02-28T11:14:53;8.50;79.00
39095;DHT22;24840;47.508;19.376;2023-02-28T11:17:26;8.30;76.50
39095;DHT22;24840;47.508;19.376;2023-02-28T11:20:01;8.50;78.50
39095;DHT22;24840;47.508;19.376;2023-02-28T11:22:31;8.50;76.50
39095;DHT22;24840;47.508;19.376;2023-02-28T11:25:12;8.20;78.10
39095;DHT22;24840;47.508;19.376;2023-02-28T11:27:48;8.30;77.50
39095;DHT22;24840;47.508;19.376;2023-02-28T11:30:27;8.20;79.90
39095;DHT22;24840;47.508;19.376;2023-02-28T11:32:53;8.40;77.80
39095;DHT22;24840;47.508;19.376;2023-02-28T11:35:35;8.30;78.80
39095;DHT22;24840;47.508;19.376;2023-02-28T11:38:01;8.10;76.90
39095;DHT22;24840;47.508;19.376;2023-02-28T11:40:48;7.80;77.80
39095;DHT22;24840;47.508;19.376;2023-02-28T11:43:43;7.70;78.00
39095;DHT22;24840;47.508;19.376;2023-02-28T11:46:27;7.60;80.20
39095;DHT22;24840;47.508;19.376;2023-02-28T11:52:05;7.80;80.40
39095;DHT22;24840;47.508;19.376;2023-02-28T12:05:24;7.80;79.10
39095;DHT22;24840;47.508;19.376;2023-02-28T12:19:20;8.70;79.20
39095;DHT22;24840;47.508;19.376;2023-02-28T12:27:17;8.70;79.40
39095;DHT22;24840;47.508;19.376;2023-02-28T12:30:03;8.80;78.60
39095;DHT22;24840;47.508;19.376;2023-02-28T12:35:04;9.60;77.70
39095;DHT22;24840;47.508;19.376;2023-02-28T12:40:33;8.80;76.60
39095;DHT22;24840;47.508;19.376;2023-02-28T12:43:08;9.00;77.20
39095;DHT22;24840;47.508;19.376;2023-02-28T12:48:14;9.10;77.00
39095;DHT22;24840;47.508;19.376;2023-02-28T12:50:41;9.20;77.90
39095;DHT22;24840;47.508;19.376;2023-02-28T12:53:22;9.20;77.10
39095;DHT22;24840;47.508;19.376;2023-02-28T12:58:41;8.60;77.90
39095;DHT22;24840;47.508;19.376;2023-02-28T13:09:49;8.50;78.00
39095;DHT22;24840;47.508;19.376;2023-02-28T13:12:17;8.50;79.80
39095;DHT22;24840;47.508;19.376;2023-02-28T13:14:43;8.70;78.60
39095;DHT22;24840;47.508;19.376;2023-02-28T13:22:44;9.90;78.20
39095;DHT22;24840;47.508;19.376;2023-02-28T13:27:50;9.90;75.40
39095;DHT22;24840;47.508;19.376;2023-02-28T13:35:46;8.40;77.90
39095;DHT22;24840;47.508;19.376;2023-02-28T13:38:17;8.00;79.80
39095;DHT22;24840;47.508;19.376;2023-02-28T13:40:42;8.00;79.30
39095;DHT22;24840;47.508;19.376;2023-02-28T13:43:09;8.50;82.00
39095;DHT22;24840;47.508;19.376;2023-02-28T13:45:34;8.50;78.20
39095;DHT22;24840;47.508;19.376;2023-02-28T13:48:18;9.00;80.90
39095;DHT22;24840;47.508;19.376;2023-02-28T13:50:45;8.80;77.50
39095;DHT22;24840;47.508;19.376;2023-02-28T14:04:09;7.90;79.80
39095;DHT22;24840;47.508;19.376;2023-02-28T14:06:41;8.00;78.90
39095;DHT22;24840;47.508;19.376;2023-02-28T14:09:34;8.30;79.90
39095;DHT22;24840;47.508;19.376;2023-02-28T14:15:25;8.40;78.80
39095;DHT22;24840;47.508;19.376;2023-02-28T14:17:53;8.30;79.30
39095;DHT22;24840;47.508;19.376;2023-02-28T14:20:22;8.10;78.90
39095;DHT22;24840;47.508;19.376;2023-02-28T14:32:10;7.10;83.20
39095;DHT22;24840;47.508;19.376;2023-02-28T14:37:38;7.00;82.90
39095;DHT22;24840;47.508;19.376;2023-02-28T14:40:14;6.90;83.30
39095;DHT22;24840;47.508;19.376;2023-02-28T14:42:56;7.00;83.00
39095;DHT22;24840;47.508;19.376;2023-02-28T14:45:23;7.00;84.00
39095;DHT22;24840;47.508;19.376;2023-02-28T14:47:51;7.10;84.70
39095;DHT22;24840;47.508;19.376;2023-02-28T14:50:23;7.10;84.50
39095;DHT22;24840;47.508;19.376;2023-02-28T14:52:53;7.20;84.20
39095;DHT22;24840;47.508;19.376;2023-02-28T14:55:24;7.20;84.10
39095;DHT22;24840;47.508;19.376;2023-02-28T14:58:38;7.00;83.70
39095;DHT22;24840;47.508;19.376;2023-02-28T15:00:48;6.80;85.40
39095;DHT22;24840;47.508;19.376;2023-02-28T15:03:35;6.90;85.90
39095;DHT22;24840;47.508;19.376;2023-02-28T15:06:11;6.80;86.40
39095;DHT22;24840;47.508;19.376;2023-02-28T15:08:38;6.60;86.30
39095;DHT22;24840;47.508;19.376;2023-02-28T15:11:13;6.40;87.00
39095;DHT22;24840;47.508;19.376;2023-02-28T15:13:41;6.40;87.70
39095;DHT22;24840;47.508;19.376;2023-02-28T15:16:37;6.40;86.90
39095;DHT22;24840;47.508;19.376;2023-02-28T15:19:11;6.40;87.40
39095;DHT22;24840;47.508;19.376;2023-02-28T15:21:44;6.40;88.50
39095;DHT22;24840;47.508;19.376;2023-02-28T15:24:19;6.30;88.30
39095;DHT22;24840;47.508;19.376;2023-02-28T15:26:55;6.30;89.10
39095;DHT22;24840;47.508;19.376;2023-02-28T15:29:23;6.00;89.30
39095;DHT22;24840;47.508;19.376;2023-02-28T15:31:55;6.00;89.70
39095;DHT22;24840;47.508;19.376;2023-02-28T15:34:42;6.00;89.90
39095;DHT22;24840;47.508;19.376;2023-02-28T15:37:27;6.00;89.80
39095;DHT22;24840;47.508;19.376;2023-02-28T15:39:57;6.00;90.10
39095;DHT22;24840;47.508;19.376;2023-02-28T15:42:30;6.00;90.40
39095;DHT22;24840;47.508;19.376;2023-02-28T15:44:57;6.00;90.00
39095;DHT22;24840;47.508;19.376;2023-02-28T15:47:28;5.80;90.10
39095;DHT22;24840;47.508;19.376;2023-02-28T15:50:01;5.80;90.40
39095;DHT22;24840;47.508;19.376;2023-02-28T15:52:37;5.90;90.90
39095;DHT22;24840;47.508;19.376;2023-02-28T15:55:19;5.90;90.50
39095;DHT22;24840;47.508;19.376;2023-02-28T15:57:50;5.90;90.50
39095;DHT22;24840;47.508;19.376;2023-02-28T16:00:24;5.70;90.50
39095;DHT22;24840;47.508;19.376;2023-02-28T16:02:51;5.70;90.60
39095;DHT22;24840;47.508;19.376;2023-02-28T16:07:46;5.60;90.80
39095;DHT22;24840;47.508;19.376;2023-02-28T16:10:14;5.50;91.20
39095;DHT22;24840;47.508;19.376;2023-02-28T16:12:40;5.60;91.20
39095;DHT22;24840;47.508;19.376;2023-02-28T16:15:30;5.40;91.90
39095;DHT22;24840;47.508;19.376;2023-02-28T16:17:55;5.40;91.60
39095;DHT22;24840;47.508;19.376;2023-02-28T16:20:23;5.40;91.70
39095;DHT22;24840;47.508;19.376;2023-02-28T16:22:49;5.40;91.70
39095;DHT22;24840;47.508;19.376;2023-02-28T16:25:18;5.30;91.80
39095;DHT22;24840;47.508;19.376;2023-02-28T16:27:47;5.20;92.20
39095;DHT22;24840;47.508;19.376;2023-02-28T16:30:23;5.30;92.20
39095;DHT22;24840;47.508;19.376;2023-02-28T16:32:50;5.30;92.30
39095;DHT22;24840;47.508;19.376;2023-02-28T16:35:18;5.30;92.60
39095;DHT22;24840;47.508;19.376;2023-02-28T16:37:44;5.30;92.80
39095;DHT22;24840;47.508;19.376;2023-02-28T16:40:22;5.10;92.90
39095;DHT22;24840;47.508;19.376;2023-02-28T16:42:51;5.10;92.90
39095;DHT22;24840;47.508;19.376;2023-02-28T16:45:25;5.00;93.00
39095;DHT22;24840;47.508;19.376;2023-02-28T16:47:51;5.00;92.80
39095;DHT22;24840;47.508;19.376;2023-02-28T16:50:23;5.00;93.10
39095;DHT22;24840;47.508;19.376;2023-02-28T16:52:50;4.90;93.00
39095;DHT22;24840;47.508;19.376;2023-02-28T16:55:18;5.00;93.10
39095;DHT22;24840;47.508;19.376;2023-02-28T16:57:47;5.00;93.50
39095;DHT22;24840;47.508;19.376;2023-02-28T17:00:15;5.00;93.80
39095;DHT22;24840;47.508;19.376;2023-02-28T17:02:41;5.00;94.00
39095;DHT22;24840;47.508;19.376;2023-02-28T17:05:10;5.00;94.50
39095;DHT22;24840;47.508;19.376;2023-02-28T17:07:38;5.00;94.00
39095;DHT22;24840;47.508;19.376;2023-02-28T17:10:19;5.00;93.50
39095;DHT22;24840;47.508;19.376;2023-02-28T17:12:45;5.00;93.90
39095;DHT22;24840;47.508;19.376;2023-02-28T17:15:13;4.90;93.80
39095;DHT22;24840;47.508;19.376;2023-02-28T17:17:40;4.90;94.20
39095;DHT22;24840;47.508;19.376;2023-02-28T17:20:11;4.90;94.60
39095;DHT22;24840;47.508;19.376;2023-02-28T17:22:37;4.90;94.60
39095;DHT22;24840;47.508;19.376;2023-02-28T17:25:03;4.90;94.20
39095;DHT22;24840;47.508;19.376;2023-02-28T17:27:30;4.80;94.40
39095;DHT22;24840;47.508;19.376;2023-02-28T17:29:55;4.90;94.80
39095;DHT22;24840;47.508;19.376;2023-02-28T17:32:21;4.90;94.80
39095;DHT22;24840;47.508;19.376;2023-02-28T17:34:47;4.90;94.90
39095;DHT22;24840;47.508;19.376;2023-02-28T17:37:12;4.80;94.60
39095;DHT22;24840;47.508;19.376;2023-02-28T17:39:38;4.70;95.40
39095;DHT22;24840;47.508;19.376;2023-02-28T17:42:04;4.80;95.60
39095;DHT22;24840;47.508;19.376;2023-02-28T17:44:29;4.80;95.10
39095;DHT22;24840;47.508;19.376;2023-02-28T17:46:55;4.70;96.00
39095;DHT22;24840;47.508;19.376;2023-02-28T17:49:21;4.70;95.90
39095;DHT22;24840;47.508;19.376;2023-02-28T17:51:48;4.70;95.90
39095;DHT22;24840;47.508;19.376;2023-02-28T17:54:14;4.70;95.70
39095;DHT22;24840;47.508;19.376;2023-02-28T17:56:40;4.60;95.90
39095;DHT22;24840;47.508;19.376;2023-02-28T17:59:08;4.60;96.20
39095;DHT22;24840;47.508;19.376;2023-02-28T18:01:35;4.60;96.20
39095;DHT22;24840;47.508;19.376;2023-02-28T18:04:00;4.60;96.60
39095;DHT22;24840;47.508;19.376;2023-02-28T18:06:35;4.60;95.90